Terminal Aerodrome Forecast
Issued by NWS

Home | Current Version | Previous Version | Text Only | Print | Product List | Glossary Off
Versions: 1 2 3 4 5 6 7 8 9 10 11 12 13 14 15 16 17 18 19 20 21

211
FTUS43 KBIS 221123
TAFDIK
TAF
KDIK 221123Z 2212/2312 15022G31KT P6SM OVC015
     FM221700 16019G28KT P6SM SCT035
     FM222200 17013KT P6SM SCT150
     FM230100 17009KT P6SM SCT200
     FM230700 20005KT P6SM BKN140=

USA.gov is the U.S. government's official web portal to all federal, state and local government web resources and services.